METARS
Date METAR Location Area
28/07/2014 LGY7 280030Z 00000KT 26/20 Q1010 Aegina Attica
28/07/2014 LGH5 280030Z 00000KT 27/19 Q1010 Ampelokipoi Attica
28/07/2014 LGS5 280030Z 00000KT 24/18 Q1008 Anavissos Attica
28/07/2014 LGO0 280030Z 33801KT 25/15 Q1011 Ano Liosia Attica
28/07/2014 LGB9 280030Z 22500KT 26/19 Q1012 Athens - Gazi Attica
27/07/2014 LGL5 272330Z 22500KT 25/16 Q1011 Ekali Attica
26/07/2014 LGS3 260330Z 02300KT 27/18 Q1009 Faliro Attica
28/07/2014 LGI4 280000Z 00000KT 264/157 Q10107 Hydra Attica
28/07/2014 LGM3 280030Z 00000KT 27/18 Q1012 Hydra Attica
27/07/2014 LGO2 272230Z 22503KT 22/15 Q1011 Imittos Attica
28/07/2014 LGT8 280030Z 00000KT 16/14 Q1011 Ippokratios Attica
28/07/2014 LG99 280030Z 00000KT 23/17 Q1012 Kantza Attica
27/07/2014 LG13 271330Z 00000KT 33/19 Q1012 Kifissia Attica
28/07/2014 LGD6 280030Z 18000KT 26/22 Q1010 Lavrio Attica
28/07/2014 LGK0 280030Z 33800KT 25/17 Q1011 Marousi Attica
28/07/2014 LG00 280110Z 00000KT 22/15 Q1011 Marousi (Anavrita) Attica
28/07/2014 LGR0 280030Z 00000KT 27/20 Q1011 Nea Smirni Attica
27/07/2014 LGM8 272230Z 20300KT 29/18 Q1013 Neos Kosmos Attica
28/07/2014 LGA3 280110Z 00000KT 23/16 Q1011 Pallini - Kantza 2 Attica
28/07/2014 LGK3 280030Z 00007KT 20/14 Q1011 Parnitha 1230 EAA Attica
28/07/2014 LGT6 280030Z 00000KT 27/18 Q1012 Patissia Attica
28/07/2014 LGX9 280030Z 31500KT 24/15 Q1009 Penteli Attica
28/07/2014 LG67 280100Z 00000G2592KT 247/174 Q10112 Penteli Attica
28/07/2014 LGU0 280030Z 24803KT 27/19 Q1012 Peristeri Attica
28/07/2014 LGY6 280030Z 00000KT 24/19 Q1011 Porto Rafti Attica
28/07/2014 LG96 280030Z 00000KT 25/19 Q1011 Psychico Attica
28/07/2014 LGZ0 280030Z 27002KT 24/19 Q1010 Rafina Attica
24/07/2014 LGG2 240730Z 09005KT 29/20 Q1006 Spata Attica
28/07/2014 LGS6 280030Z 29304KT 26/20 Q1011 Spetses Attica
27/07/2014 LGZ2 271030Z 13507KT 32/18 Q1012 Vari Attica
28/07/2014 LGR6 280030Z 22503KT 22/17 Q1010 Vilia Attica
28/07/2014 LG74 280100Z 00000KT 262/181 Q10104 Ymittos Attica
28/07/2014 LGG1 280100Z 00000KT 239/157 Q231 Kalivia Thorikou Attica E
25/07/2014 LG45 251230Z 09010G23KT 30/22 Q1011 Markopoulo Attica E
28/07/2014 LG72 280010Z 00000KT 243/138 Q10083 Keratea Attica SE
28/07/2014 LGW4 280030Z 00003KT 22/06 Q1010 Ag. Ioannis Sfakion Crete
28/07/2014 LGJ9 280030Z 00000KT 26/16 Q1012 Aghios Nikolaos Crete
28/07/2014 LGT4 280030Z 15800KT 21/17 Q1012 Alikianos Crete
28/07/2014 LGB6 280030Z 15803KT 25/06 Q1009 Anogeia Crete
23/07/2014 LGZ6 231830Z 22503KT 20/17 Q1009 Askyfou Crete
28/07/2014 LG25 280030Z 27002KT 24/16 Q1011 Chania Crete
28/07/2014 LGN3 280030Z 20300KT 22/18 Q1012 Chania Center Crete
28/07/2014 LG61 280030Z 22501KT 26/16 Q1011 Cost - Irakleio Crete
28/07/2014 LGL9 280030Z 00000KT 23/18 Q1011 Falasarna Crete
28/07/2014 LGL1 280030Z 00000KT 26/11 Q1011 Fourfouras Crete
30/06/2014 LGD4 300800Z 33807KT 26/15 Q1012 Fragmapotamon - Rethymno Crete
28/07/2014 LG30 280030Z 18003KT 25/15 Q1012 Heraklion - Knossos Crete
28/07/2014 LG95 280030Z 00000KT 25/19 Q1012 Ierapetra Crete
17/07/2014 LGP0 171030Z 22507KT 26/20 Q1012 Lentas Hrakleion Crete
27/07/2014 LGD7 272030Z 31500KT 26/15 Q1013 Metaxochori - Heraklion Crete
28/07/2014 LGI2 280030Z 00000KT 22/19 Q1012 Mires Crete
28/07/2014 LG36 280030Z 06803KT 25/15 Q1011 Paleochora Crete
27/07/2014 LG8A 271000Z 0458694G13878KT 321/156 Q10065 Pirathi Heraklion Crete
26/07/2014 LG58 260630Z 31510KT 26/22 Q1009 Rethymno Crete
28/07/2014 LGT2 280030Z 15800KT 23/19 Q1011 Rethymno - Plakia Crete
28/07/2014 LGB4 280030Z 00000KT 22/05 Q1012 Samaria Crete
27/07/2014 LGY1 271130Z 13505KT 32/11 Q1012 Samaria Crete
28/07/2014 LGM2 280030Z 24800KT 24/15 Q1011 Sitia Crete
28/07/2014 LG75 280030Z 11301KT 22/15 Q1013 Spili - Rethymnon Crete
28/07/2014 LG50 280030Z 00000KT 14/11 Q1012 Tzermiado Lasithi Crete
28/07/2014 LG70 280030Z 09000KT 21/15 Q1011 Vrysses Crete
28/07/2014 LGT5 280030Z 13503KT 26/15 Q1011 Amorgos Cyclades
28/07/2014 LGN6 280030Z 04501KT 26/18 Q1011 Andros Cyclades
28/07/2014 LGS7 280030Z 04502KT 26/18 Q1011 Donoussa Cyclades
28/07/2014 LGI0 280030Z 00000KT 25/19 Q1012 Ios Cyclades
28/07/2014 LGP2 280030Z 20307KT 26/15 Q1013 Ioulida - Kea Cyclades
27/07/2014 LGP5 272330Z 22500KT 25/22 Q1011 Iraklia Cyclades
28/07/2014 LGE3 280030Z 00000KT 26/17 Q1011 Kea Cyclades
28/07/2014 LGX8 280030Z 27003KT 25/23 Q1011 Koufonissia Cyclades
28/07/2014 LGS0 280030Z 13500KT 24/20 Q1012 Milos Cyclades
28/07/2014 LG66 280030Z 00000KT 25/22 Q1011 Mykonos Cyclades
28/07/2014 LGM0 280030Z 00000KT 24/18 Q1012 Naxos Cyclades
28/07/2014 LGV3 280030Z 00000KT 20/13 Q1011 Naxos - Apiranthos Cyclades
30/06/2014 LGT0 301300Z 31508KT 23/19 Q1013 Naxos - Apollonas Cyclades
28/07/2014 LGU1 280030Z 00000KT 24/12 Q1012 Naxos - Damarionas Cyclades
28/07/2014 LGU2 280030Z 22510KT 26/13 Q1012 Naxos - Koronos Cyclades
12/07/2014 LGN7 120800Z 29304G15KT 24/11 Q1013 Naxos - Kynidaros Cyclades
28/07/2014 LGW1 280030Z 09002KT 27/14 Q1011 Naxos - Melanes Cyclades
28/07/2014 LGO7 280030Z 00000KT 23/20 Q1011 Naxos - Mikri Vigla Cyclades
28/07/2014 LG02 280030Z 13505KT 25/20 Q1012 Paros Cyclades
22/07/2014 LGX5 222330Z 24808G19KT 23/22 Q1005 Santorini Cyclades
28/07/2014 LGX7 280030Z 29306KT 24/21 Q1011 Schinoussa Cyclades
07/07/2014 LG07 070630Z 00000KT 255/97 Q10099 Tinos Cyclades
20/07/2014 LGB8 200230Z 33808KT 24/20 Q1010 Tinos NOA Cyclades
28/07/2014 LGAB 280030Z 27003KT 25/14 Q1009 Emponas - Rhodes Dodecanese
28/07/2014 LGG6 280030Z 27003KT 26/19 Q1012 Kalymnos Dodecanese
28/07/2014 LGAC 280030Z 31510KT 24/22 Q1009 Kattavia - Rhodes Dodecanese
28/07/2014 LGAA 280030Z 33802KT 84/60 Q 30 Lindos - Rhodes Dodecanese
28/07/2014 LG65 280030Z 02300KT 25/21 Q1012 Patmos Dodecanese
28/07/2014 LGS9 280030Z 27005KT 25/21 Q1012 Rhodes Dodecanese
28/07/2014 LGM5 280030Z 20301KT 25/21 Q1012 Kasos Dodecanisa
28/07/2014 LGX1 280030Z 27003KT 27/16 Q1011 Kos Dodekanissa
28/07/2014 LG4A 280030Z 22500KT 24/20 Q1011 Chios East Aegean
28/07/2014 LGT1 280030Z 06804KT 27/18 Q1010 Fournoi East Aegean
28/07/2014 LGI9 280030Z 20303KT 20/12 Q1011 Ikaria East Aegean
28/07/2014 LGI5 280030Z 00000KT 24/22 Q1010 Lemnos East Aegean
27/07/2014 LGI6 272230Z 00000KT 24/19 Q1010 Lesvos East Aegean
28/07/2014 LGJ3 280030Z 00000KT 23/20 Q1012 Lesvos - Thermi East Aegean
28/07/2014 LGZ7 280030Z 33801KT 25/19 Q1010 Mantamados East Aegean
28/07/2014 LGY5 280030Z 11303KT 24/17 Q1012 Molyvos East Aegean
28/07/2014 LGF1 280030Z 22503KT 21/16 Q1010 Samos East Aegean
28/07/2014 LGW7 280030Z 00000KT 26/16 Q1007 Akrotirio Paksimada Evia
28/07/2014 LGO3 280030Z 11303KT 27/17 Q1008 Chalkida Evia
27/07/2014 LGR5 272330Z 00000KT 26/16 Q1011 Kavodoro Evia
09/07/2014 LGY0 090700Z 11300KT 09/05 Q1034 Krieza Evia
28/07/2014 LGX0 280030Z 27000KT 23/17 Q1012 Kymi Evia
25/07/2014 LGT7 251000Z 27004KT 09/07 Q1011 Setta Evia
28/07/2014 LG81 280030Z 04500KT 22/16 Q1010 Steni Evia
27/07/2014 LGC4 272030Z 04502KT 26/18 Q1012 Styra Evia
28/07/2014 LGD3 280030Z 22502KT 25/19 Q1011 Zarakes Evia
28/07/2014 LGP6 280030Z 11300KT 16/15 Q1013 Agia Kyriaki Ioanninon Hepirus
28/07/2014 LGO1 280030Z 00000KT 20/19 Q1011 Aridaia Hepirus
24/07/2014 LGD2 241030Z 18003KT 28/19 Q1009 Arta - Kompoti Hepirus
28/07/2014 LG38 280030Z 06803KT 22/17 Q1012 Arta - Vlacherna Hepirus
03/07/2014 LGE4 031830Z 33810KT 20/11 Q1017 Aspraggeloi Hepirus
28/07/2014 LGI3 280030Z 06800KT 17/15 Q1011 Derviziana Hepirus
28/07/2014 LGP4 280030Z 11300KT 16/13 Q1011 Dodoni Hepirus
02/07/2014 LGL8 021430Z 02304KT 24/07 Q1015 Grammos Hepirus
28/07/2014 LG43 280030Z 04503KT 20/17 Q1011 Igoumenitsa Hepirus
27/07/2014 LG49 271930Z 11300KT 22/15 Q1011 Ioannina Anatoli Hepirus
28/07/2014 LGK1 280030Z 00000KT 23/20 Q1012 Kanali, Preveza Hepirus
26/07/2014 LGE0 261330Z 02302KT 29/19 Q1011 Katarraktis - Arta Hepirus
28/07/2014 LGO5 280030Z 09003KT 15/12 Q1010 Kerasovo Konitsa Hepirus
23/07/2014 LG3A 230630Z 22502KT 21/18 Q1006 Konitsa Hepirus
28/07/2014 LGO8 280030Z 33800KT 14/11 Q1010 Metsovo Hepirus
13/07/2014 LGK6 131300Z 31500KT 23/18 Q1013 Papigo Hepirus
27/07/2014 LGF6 272030Z 22508KT 21/14 Q1011 Paramythia Hepirus
28/07/2014 LGK9 280030Z 09001KT 24/22 Q1013 Parga Hepirus
27/07/2014 LGK7 272030Z 13500KT 20/13 Q1012 Pesta Hepirus
25/07/2014 LGY9 250730Z 04501KT 21/17 Q1000 Plikati Ioanninon Hepirus
28/07/2014 LGP1 280030Z 09000KT 17/14 Q1012 Pramanta Hepirus
27/07/2014 LGK2 272230Z 00000KT 15/13 Q1014 Theodoriana, Arta Hepirus
25/07/2014 LGD0 250630Z 00000KT 20/17 Q1010 Tristeno - Ioannina Hepirus
28/07/2014 LGM4 280030Z 00000KT 15/14 Q1011 Tyria Hepirus
28/07/2014 LGR8 280030Z 31500KT 17/14 Q1011 Vourgareli Artas Hepirus
27/07/2014 LGN9 272230Z 00000KT 13/11 Q1012 Vovoussa Hepirus
28/07/2014 LGN0 280030Z 22500KT 18/15 Q1010 Zitsa Hepirus
28/07/2014 LGJ2 280030Z 00000KT 23/21 Q1011 Corfu - Gouvia Ionio
28/07/2014 LGB0 280030Z 06801KT 25/22 Q1012 Ithaki Ionio
28/07/2014 LGI7 280030Z 20302KT 23/20 Q1013 Lefkada Ionio
26/07/2014 LGN1 260130Z 27001KT 24/20 Q1010 Paxoi Ionio
28/07/2014 LGN4 280030Z 00000KT 20/18 Q1011 Zakynthos Ionio
17/07/2014 LGG9 170930Z 02303KT 25/13 Q1012 Amynteo Macedonia
23/07/2014 LG33 230830Z 22502KT 23/16 Q1004 Chalkidiki - Polygyros Macedonia
28/07/2014 LGJ1 280030Z 27001KT 24/20 Q1012 Chalkidiki - Stratoni Macedonia
28/07/2014 LGZ5 280030Z 29302KT 20/18 Q1012 Didymoteicho Macedonia
28/07/2014 LG55 280030Z 18003KT 22/20 Q1010 Dion Macedonia
28/07/2014 LGU8 280030Z 06802KT 23/18 Q1011 Doxato - Drama Macedonia
28/07/2014 LGH3 280050Z 06200KT 21/19 Q1011 Drama Macedonia
28/07/2014 LGH6 280030Z 00000KT 21/18 Q1011 Drama 2 Macedonia
28/07/2014 LGY3 280030Z 20303KT 24/19 Q1011 Eleutheroupoli Macedonia
27/07/2014 LGJ6 272050Z 15916G27KT 02/02 Q1009 Falakro Macedonia
22/07/2014 LG63 221230Z 00006KT -RA 23/20 Q1006 Florina Macedonia
27/07/2014 LGZ8 271630Z 06808KT 29/21 Q1011 Fotolivos Macedonia
28/07/2014 LG73 280030Z 27001KT 23/20 Q1010 Giannitsa Macedonia
28/07/2014 LGF2 280030Z 00000KT 15/13 Q1010 Grevena Macedonia
28/07/2014 LGO4 280030Z 11304KT 20/18 Q1012 Hmathia - Rizomata Macedonia
28/07/2014 LG93 280030Z 18003KT 11/11 Q1013 Kaimaktsalan Macedonia
27/07/2014 LGN8 272050Z 19217G43KT 32/29 Q979 Kartakla - Falakro Macedonia
28/07/2014 LGO9 280030Z 09003KT 25/23 Q1010 Kassandreia (Xalkidiki) Macedonia
28/07/2014 LG27 280050Z 06100KT 25/21 Q1011 Kavala - Dexameni Macedonia
05/07/2014 LGA2 052147Z 00000KT 01/00 Q1022 Kavala - Eleftheroupoli Macedonia
28/07/2014 LG42 280030Z 02303KT 22/19 Q1009 Kilkis Macedonia
26/07/2014 LGW8 261530Z 09005G18KT 30/19 Q1011 Kimisi Macedonia
28/07/2014 LGJ4 280030Z 27000KT 15/14 Q1014 Kozani - Ardassa Macedonia
25/07/2014 LGP3 251730Z 09003KT +RA 16/13 Q1011 Lailias - Serres Macedonia
28/07/2014 LGZ9 280030Z 09000KT 17/16 Q1010 Mavropigi Macedonia
28/07/2014 LG40 280030Z 29300KT 22/17 Q1011 Naousa Macedonia
28/07/2014 LGZ4 280030Z 09001KT 25/20 Q1010 Neos Marmaras Macedonia
28/07/2014 LG48 280030Z 00000KT 17/16 Q 0 Nevrokopi Drama Macedonia
28/07/2014 LGS4 280030Z 00000KT 21/16 Q1009 Notio Pedio - Eordea Macedonia
28/07/2014 LGW0 280030Z 00000KT 17/16 Q1013 Paranesti Macedonia
25/07/2014 LG26 251330Z 20300KT 27/16 Q1007 Ptolemaida Macedonia
28/07/2014 LG87 280030Z 15805KT 15/13 Q1010 Seli Ski Center Macedonia
28/07/2014 LGW6 280030Z 06800KT 24/19 Q1012 Serres Macedonia
27/07/2014 LGD9 271830Z 00000KT 24/22 Q1012 Serres - Kerkini Macedonia
28/07/2014 LG14 280100Z 00000KT 219/177 Q10137 Serres - Proti Macedonia
07/07/2014 LGY8 071419Z 31505KT 9999 SCT036 10/00 Q1010 Thassos Macedonia
28/07/2014 LGR9 280030Z 00000KT 26/22 Q1011 Thessaloniki Macedonia
28/07/2014 LGF0 280030Z 00000KT 14/13 Q1011 Variko Macedonia
28/07/2014 LG82 280230Z 27014KT 03/02 Q1005 Vassilitsa Macedonia
25/07/2014 LGC2 250430Z 20301KT 22/20 Q1008 Vatopedi - Athos Macedonia
28/07/2014 LGE9 280030Z 00000KT 19/17 Q1012 Vegoritida Macedonia
28/07/2014 LGE5 280030Z 00000KT 21/19 Q1008 Veroia Macedonia
28/07/2014 LG98 280030Z 29300KT 14/10 Q1010 Vlasti - Kozani Macedonia
28/07/2014 LGF5 280101Z 10300KT 20/17 Q1011 Vounochori - Kavala Macedonia
28/07/2014 LGU5 280030Z 29303KT 24/17 Q1010 Agioi Theodoroi Peloponissos
28/07/2014 LGU7 280030Z 00000KT 21/09 Q1011 Alagonia - Messinia Peloponissos
28/07/2014 LG52 280030Z 11303KT 21/17 Q1011 Amaliada Peloponissos
28/07/2014 LG77 280030Z 13500KT 21/14 Q1010 Andritsaina Peloponissos
27/07/2014 LGU6 271630Z 20302KT 31/18 Q1013 Arfara - Messinia Peloponissos
28/07/2014 LGT3 280030Z 20302KT 23/17 Q1012 Argos Peloponissos
17/07/2014 LGA8 172100Z 00000KT 00/00 Q 0 Chalandritsa Peloponissos
28/07/2014 LGV0 280030Z 20303KT 25/16 Q1011 Derveni Peloponissos
28/07/2014 LGK4 280630Z 15801KT -RA 03/02 Q1021 Elati Peloponissos
28/07/2014 LGC3 280030Z 00000KT 19/14 Q1011 Foloi - Ilia Peloponissos
28/07/2014 LGX6 280030Z 06801KT 24/16 Q1012 Geraki Peloponissos
24/07/2014 LGB7 240130Z 00000KT 22/15 Q1007 Ilia - Vartholomio Peloponissos
28/07/2014 LG85 280030Z 00000KT 25/19 Q1013 Isthmos Peloponissos
28/07/2014 LG6A 280030Z 00001KT 25/18 Q1012 Kalamata Peloponissos
28/07/2014 LGV7 280030Z 24800KT 16/11 Q1012 Kalavryta Peloponissos
28/07/2014 LGZ3 280030Z 06802KT 24/18 Q1010 Kardamyli Peloponissos
28/07/2014 LGJ5 280030Z 33801KT 23/19 Q1012 Katakolo Peloponissos
28/07/2014 LGP7 280030Z 00000KT 16/11 Q1012 Kato Vlassia Peloponissos
27/07/2014 LGB2 272000Z 20301KT 27/23 Q1011 Katoachaia Peloponissos
28/07/2014 LGB5 280030Z 31503KT 24/20 Q1011 Kavomalias Peloponissos
26/07/2014 LGM7 261830Z 13503KT 26/21 Q1010 Kranidi Peloponissos
28/07/2014 LGV1 280030Z 00000KT 22/14 Q1012 Kyparissia Peloponissos
28/07/2014 LGW9 280030Z 31501KT 19/12 Q1011 Lagadia Peloponissos
28/07/2014 LG92 280030Z 00000KT 21/17 Q1011 Lappa-Larissos-Achaia Peloponissos
07/07/2014 LG91 070630Z 00000KT 21/15 Q1012 Lousika-Olenias-Achaia Peloponissos
28/07/2014 LGV4 280030Z 31502KT 26/14 Q1012 Lykochia Peloponissos
28/07/2014 LGG5 280030Z 00000KT 18/15 Q1012 Megalopoli Peloponissos
28/07/2014 LGV2 280030Z 00000KT 19/13 Q1010 Messinia - Kopanaki Peloponissos
28/07/2014 LGF8 280030Z 00001KT 24/17 Q1011 Molaoi Peloponissos
28/07/2014 LG56 280030Z 18000KT 26/20 Q1011 Monemvasia Peloponissos
28/07/2014 LGE1 280030Z 00000KT 19/16 Q1011 Nemea Peloponissos
28/07/2014 LGD5 280030Z 00000KT 17/13 Q1012 Oleni - Ilia Peloponissos
28/07/2014 LGB3 280030Z 09000KT 21/16 Q1012 Olympia Peloponissos
23/07/2014 LGV6 231630Z 00000KT 00/00 Q 0 Panachaiko Oros Peloponissos
28/07/2014 LGZ1 280030Z 15802KT 23/18 Q1011 Patra Peloponissos
28/07/2014 LG79 272300Z 00000KT 254/205 Q10129 Patra - Agia Peloponissos
28/07/2014 LG71 280100Z 00000KT 238/176 Q10119 Patra - Drosia Peloponissos
28/07/2014 LG84 280030Z 29303KT 25/22 Q1012 Patra - Port Peloponissos
28/07/2014 LG59 280030Z 11302KT 23/15 Q1011 Pirgos Peloponissos
23/07/2014 LGH8 230430Z 31503KT 23/21 Q1007 Rio Peloponissos
28/07/2014 LGT9 280030Z 11303KT 23/14 Q1011 Romanos - Patra Peloponissos
28/07/2014 LGA0 280030Z 00000KT 21/16 Q1010 Sagaiika Peloponissos
28/07/2014 LGF7 280030Z 33801KT 21/16 Q1013 Sparti Peloponissos
28/07/2014 LGS2 280030Z 06800KT 17/11 Q1012 Stemnitsa Peloponissos
28/07/2014 LGR1 280030Z 22506KT 22/06 Q1009 Trikala Korinthias Peloponissos
28/07/2014 LG83 280030Z 00000KT 15/14 Q1012 Tripoli Peloponissos
28/07/2014 LGU9 280030Z 00000KT 14/12 Q1012 Vytina Peloponissos
28/07/2014 LG86 280030Z 09000KT 18/15 Q1011 Zaxaro Peloponissos
23/07/2014 LGN2 232030Z 31504KT 26/22 Q1008 Alonissos Sporades
28/07/2014 LGI1 280030Z 11305KT 27/18 Q1011 Skyros Sporades
28/07/2014 LGH9 280030Z 00000KT 23/18 Q1014 Agrinio Sterea Ellada
28/07/2014 LGC7 280030Z 13501KT 25/21 Q1012 Aitoliko Sterea Ellada
28/07/2014 LG29 280030Z 18000KT 20/14 Q1010 Amfiklia Sterea Ellada
26/07/2014 LGH1 260500Z 00000KT 219/167 Q10114 Amfiklia 2 Sterea Ellada
28/07/2014 LGG8 280030Z 00000KT 24/18 Q1013 Antikira Sterea Ellada
28/07/2014 LG97 280110Z 30001KT 22/09 Q1010 Arachova Sterea Ellada
28/07/2014 LGC5 280030Z 31506KT 22/09 Q1012 Arahova Sterea Ellada
27/07/2014 LGH0 271930Z 00000KT 00/00 Q 0 Avlida Sterea Ellada
28/07/2014 LGR2 280030Z 00000KT 19/12 Q1011 Dam of Mornos Sterea Ellada
28/07/2014 LGR3 280030Z 00000KT 18/12 Q1012 Diakopi of Lidoriki Sterea Ellada
28/07/2014 LGW5 280030Z 18002KT 23/11 Q1009 Domokos Sterea Ellada
14/07/2014 LG21 141323Z 24804KT 29/15 Q1014 Evia - Chalkida Sterea Ellada
28/07/2014 LGY4 280030Z 33803KT 26/18 Q1012 Galaxidi Sterea Ellada
28/07/2014 LGC8 280100Z 00000G1728KT 210/176 Q10106 Gavalou - Aitol/nia Sterea Ellada
26/07/2014 LGJ7 261330Z 31503KT 31/19 Q1011 Kaparelli Sterea Ellada
28/07/2014 LGC9 280030Z 00000KT 11/10 Q1014 Karpenisi Sterea Ellada
28/07/2014 LGP9 280030Z 18005KT 25/16 Q1009 Kleidi Viotias Sterea Ellada
28/07/2014 LGR4 280030Z 27001KT 18/12 Q1011 Koniakos of Lidoriki Sterea Ellada
28/07/2014 LG5A 280030Z 02301KT 23/17 Q1010 Kopaida Sterea Ellada
28/07/2014 LGV9 280030Z 31505KT 26/14 Q1009 Lamia Sterea Ellada
27/07/2014 LGJ8 272230Z 22500KT 22/16 Q1009 Lefkochori Sterea Ellada
19/07/2014 LGI8 192330Z 31503KT 20/17 Q1013 Livadeia Sterea Ellada
28/07/2014 LGE7 280030Z 24807KT 22/14 Q1008 Makrakomi Sterea Ellada
28/07/2014 LGA6 280030Z 00001KT 11/09 Q1010 Mavrolithari - Vardousia Sterea Ellada
27/07/2014 LGK8 272330Z 27000KT 17/11 Q1010 Myriki Sterea Ellada
28/07/2014 LGG4 280030Z 09002KT 17/09 Q1011 Orini Nafpaktia Sterea Ellada
01/07/2014 LGA4 010700Z 09009KT -SN 02/M02 Q1009 Parnassos Sterea Ellada
27/07/2014 LGF9 271430Z 00000KT 03/02 Q1011 Parnassos1950 Sterea Ellada
28/07/2014 LGL0 280030Z 15801KT 22/13 Q1011 Polydroso Sterea Ellada
07/07/2014 LGR7 071230Z 04508KT 11/09 Q1025 Prasino - Viotia Sterea Ellada
28/07/2014 LG69 280030Z 15802KT 22/15 Q1010 Tanagra Sterea Ellada
28/07/2014 LGO6 280030Z 09002KT 25/18 Q1010 Theologos Sterea Ellada
13/07/2014 LG94 131630Z 00000KT 262/176 Q10100 Hortiatis Thes/niki
28/07/2014 LG15 280112Z 09000KT 27/08 Q1010 Kamara Thes/niki Thes/niki
13/07/2014 LGA5 132200Z 24800KT 17/16 Q1011 Lagadas Thes/niki
24/07/2014 LG11 240730Z 12901KT 10/06 Q1006 West Thes/niki Thes/niki
20/07/2014 LGV5 200530Z 02301KT 21/17 Q1012 Tsamantas Thesprotia
28/07/2014 LGL4 280030Z 02301KT 14/12 Q1012 Gardiki Thessalia
25/07/2014 LGW3 251030Z 13501KT 30/17 Q1008 Kalabaka Thessalia
28/07/2014 LG2A 280030Z 13501KT 19/17 Q1010 Karditsa Thessalia
28/07/2014 LGL6 280030Z 00000KT 24/19 Q1009 Larissa Thessalia
28/07/2014 LG41 280050Z 00000G1728KT 252/188 Q10084 Larissa Thessalia
27/07/2014 LGU3 272000Z 202864G2592KT 279/192 Q10090 Larissa Thessalia
28/07/2014 LGS8 280030Z 02300KT 22/18 Q1010 Larissa - Agia Thessalia
28/07/2014 LGL7 282130Z 24812KT 16/05 Q1014 Limni Plastira Thessalia
26/07/2014 LGU4 260700Z 29304KT 04/M07 Q1013 Olympos Thessalia
28/07/2014 LG7A 280105Z 00000KT 254/179 Q10103 Pedio Areos Volou Thessalia
28/07/2014 LGE2 280030Z 22500KT 15/11 Q1009 Pertouli Thessalia
28/07/2014 LGY2 280030Z 04503KT 24/15 Q1010 Portaria - Pelio Thessalia
28/07/2014 LG80 280030Z 27002KT 27/20 Q1013 Skopelos - Sporades Thessalia
28/07/2014 LG24 280030Z 00000KT 25/21 Q1010 Sporades - Skiathos Thessalia
28/07/2014 LG57 280030Z 00001KT 23/17 Q1010 Trikala Thessalia
28/07/2014 LG51 280030Z 00000KT 26/20 Q1009 Volos Thessalia
28/07/2014 LGG3 280030Z 24801KT 23/16 Q1012 Zagora EAA Thessalia
25/07/2014 LGD8 250930Z 04506KT 31/20 Q1011 Alexandroupolis Thraki
15/07/2014 LGM9 151330Z 22505KT 28/19 Q1005 Imeros Thraki
27/07/2014 LG35 272010Z 03002KT 25/21 Q1012 Komotini Thraki
27/07/2014 LGL2 272330Z 00000KT 22/19 Q1013 Metaxades - Evros Thraki
28/07/2014 LG31 280030Z 00000KT 20/18 Q1012 Orestiada Thraki
28/07/2014 LGC1 280030Z 06802KT 25/19 Q1011 Samothraki Thraki
28/07/2014 LGC6 280030Z 02300KT 22/19 Q1012 Xanthi Thraki
www.meteorologia.gr